createdAt,value
2019-05-26T00:00:23.532Z,99838.66
2019-05-26T00:02:53.231Z,99834.10
2019-05-26T00:05:22.704Z,99769.56
2019-05-26T00:07:52.287Z,99827.38
2019-05-26T00:10:22.010Z,99818.50
2019-05-26T00:12:51.467Z,99816.30
2019-05-26T00:15:21.118Z,99812.27
2019-05-26T00:17:50.706Z,99811.77
2019-05-26T00:20:20.362Z,99802.69
2019-05-26T00:22:49.794Z,99803.54
2019-05-26T00:25:20.057Z,99800.00
2019-05-26T00:27:49.617Z,99805.73
2019-05-26T00:30:19.566Z,99799.86
2019-05-26T00:32:49.218Z,99798.84
2019-05-26T00:35:18.699Z,99793.14
2019-05-26T00:37:50.362Z,99785.89
2019-05-26T00:40:19.737Z,99777.33
2019-05-26T00:42:52.286Z,99785.27
2019-05-26T00:45:21.943Z,99776.34
2019-05-26T00:47:51.457Z,99769.12
2019-05-26T00:50:21.208Z,99762.89
2019-05-26T00:52:50.873Z,99761.88
2019-05-26T00:55:20.795Z,99759.19
2019-05-26T00:57:50.618Z,99761.38
2019-05-26T01:00:36.669Z,99759.19
2019-05-26T01:03:06.153Z,99760.53
2019-05-26T01:05:38.353Z,99757.34
2019-05-26T01:08:08.732Z,99750.63
2019-05-26T01:10:38.366Z,99745.42
2019-05-26T01:13:07.911Z,99743.05
2019-05-26T01:15:37.465Z,99742.23
2019-05-26T01:18:08.361Z,99737.18
2019-05-26T01:20:49.544Z,99735.16
2019-05-26T01:23:25.370Z,99728.27
2019-05-26T01:25:54.915Z,99726.10
2019-05-26T01:28:24.404Z,99719.37
2019-05-26T01:30:53.874Z,99722.56
2019-05-26T01:33:23.430Z,99720.72
2019-05-26T01:35:53.065Z,99717.19
2019-05-26T01:38:24.668Z,99716.83
2019-05-26T01:40:54.424Z,99710.45
2019-05-26T01:43:23.962Z,99706.42
2019-05-26T01:45:53.391Z,99706.92
2019-05-26T01:48:24.709Z,99699.21
2019-05-26T01:50:54.157Z,99683.22
2019-05-26T01:53:23.750Z,99678.19
2019-05-26T01:55:53.226Z,99679.53
2019-05-26T01:58:22.758Z,99676.00
2019-05-26T02:00:52.176Z,99673.66
2019-05-26T02:03:21.741Z,99672.31
2019-05-26T02:05:53.807Z,99673.66
2019-05-26T02:08:36.594Z,99662.55
2019-05-26T02:10:54.546Z,99662.38
2019-05-26T02:13:26.469Z,99653.49
2019-05-26T02:15:55.952Z,99653.14
2019-05-26T02:18:25.626Z,99649.59
2019-05-26T02:20:57.899Z,99646.06
2019-05-26T02:23:27.389Z,99638.16
2019-05-26T02:25:59.591Z,99643.05
2019-05-26T02:28:31.842Z,99638.66
2019-05-26T02:31:01.301Z,99634.30
2019-05-26T02:33:32.501Z,99634.80
2019-05-26T02:36:02.267Z,99632.11
2019-05-26T02:38:31.841Z,99625.03
2019-05-26T02:41:03.473Z,99621.00
2019-05-26T02:43:32.942Z,99619.66
2019-05-26T02:46:02.425Z,99617.98
2019-05-26T02:48:31.945Z,99611.77
2019-05-26T02:51:01.370Z,99604.19
2019-05-26T02:53:31.009Z,99605.53
2019-05-26T02:56:00.714Z,99593.94
2019-05-26T02:58:30.176Z,99585.87
2019-05-26T03:01:02.878Z,99585.38
2019-05-26T03:03:32.576Z,99577.30
2019-05-26T03:06:06.597Z,99570.94
2019-05-26T03:08:38.470Z,99573.27
2019-05-26T03:11:12.025Z,99567.40
2019-05-26T03:13:42.601Z,99568.74
2019-05-26T03:16:12.918Z,99574.62
2019-05-26T03:18:44.409Z,99567.40
2019-05-26T03:21:14.599Z,99566.05
2019-05-26T03:23:49.971Z,99567.72
2019-05-26T03:26:21.744Z,99566.37
2019-05-26T03:28:51.267Z,99556.97
2019-05-26T03:31:21.024Z,99544.37
2019-05-26T03:33:50.608Z,99534.11
2019-05-26T03:36:20.336Z,99533.12
2019-05-26T03:38:49.955Z,99524.56
2019-05-26T03:41:19.504Z,99513.80
2019-05-26T03:43:51.883Z,99517.34
2019-05-26T03:46:22.010Z,99516.00
2019-05-26T03:48:53.515Z,99512.78
2019-05-26T03:51:24.833Z,99510.09
2019-05-26T03:53:54.282Z,99498.84
2019-05-26T03:56:26.916Z,99497.85
2019-05-26T03:58:58.000Z,99495.16
2019-05-26T04:01:27.907Z,99489.29
2019-05-26T04:04:00.243Z,99482.56
2019-05-26T04:06:31.505Z,99486.07
2019-05-26T04:09:03.135Z,99475.31
2019-05-26T04:11:34.765Z,99471.63
2019-05-26T04:14:04.650Z,99469.30
2019-05-26T04:16:36.072Z,99466.08
2019-05-26T04:19:05.858Z,99458.54
2019-05-26T04:21:35.350Z,99455.33
2019-05-26T04:24:09.860Z,99450.80
2019-05-26T04:26:39.337Z,99442.23
2019-05-26T04:29:10.010Z,99442.58
2019-05-26T04:31:39.802Z,99439.89
2019-05-26T04:34:12.048Z,99425.59
2019-05-26T04:36:41.505Z,99427.30
2019-05-26T04:39:13.683Z,99416.02
2019-05-26T04:41:43.768Z,99414.66
2019-05-26T04:44:13.215Z,99407.95
2019-05-26T04:46:42.774Z,99398.03
2019-05-26T04:49:12.223Z,99399.37
2019-05-26T04:51:43.113Z,99385.94
2019-05-26T04:54:14.058Z,99384.94
2019-05-26T04:56:43.507Z,99379.56
2019-05-26T04:59:19.156Z,99376.37
2019-05-26T05:01:48.625Z,99372.34
2019-05-26T05:04:18.517Z,99366.97
2019-05-26T05:06:48.259Z,99369.13
2019-05-26T05:09:17.731Z,99362.41
2019-05-26T05:11:47.501Z,99364.09
2019-05-26T05:14:18.241Z,99361.41
2019-05-26T05:16:47.824Z,99356.03
2019-05-26T05:19:19.054Z,99358.72
2019-05-26T05:21:48.579Z,99357.38
2019-05-26T05:24:18.067Z,99352.84
2019-05-26T05:26:47.699Z,99350.47
2019-05-26T05:29:20.726Z,99343.75
2019-05-26T05:31:53.067Z,99338.37
2019-05-26T05:34:25.640Z,99340.24
2019-05-26T05:36:57.637Z,99323.58
2019-05-26T05:39:29.216Z,99327.11
2019-05-26T05:41:58.968Z,99317.70
2019-05-26T05:44:28.676Z,99312.67
2019-05-26T05:46:58.388Z,99315.86
2019-05-26T05:49:27.945Z,99306.80
2019-05-26T05:52:02.729Z,99307.61
2019-05-26T05:54:32.362Z,99306.62
2019-05-26T05:57:04.657Z,99291.48
2019-05-26T05:59:38.159Z,99292.17
2019-05-26T06:02:10.250Z,99286.80
2019-05-26T06:04:45.190Z,99284.42
2019-05-26T06:07:14.745Z,99280.39
2019-05-26T06:09:46.502Z,99276.35
2019-05-26T06:12:16.019Z,99269.48
2019-05-26T06:14:45.535Z,99265.27
2019-05-26T06:17:17.376Z,99265.43
2019-05-26T06:19:46.889Z,99257.21
2019-05-26T06:22:18.380Z,99244.92
2019-05-26T06:24:49.522Z,99246.78
2019-05-26T06:27:21.333Z,99239.87
2019-05-26T06:29:58.864Z,99240.22
2019-05-26T06:32:23.483Z,99241.38
2019-05-26T06:34:53.246Z,99229.63
2019-05-26T06:37:24.877Z,99226.41
2019-05-26T06:39:54.305Z,99219.18
2019-05-26T06:42:26.367Z,99223.06
2019-05-26T06:44:55.905Z,99214.98
2019-05-26T06:47:26.903Z,99212.62
2019-05-26T06:49:56.783Z,99209.42
2019-05-26T06:52:26.216Z,99202.70
2019-05-26T06:54:55.757Z,99200.01
2019-05-26T06:57:25.404Z,99193.45
2019-05-26T06:59:54.902Z,99182.69
2019-05-26T07:02:24.350Z,99180.49
2019-05-26T07:04:53.900Z,99176.30
2019-05-26T07:07:23.368Z,99170.23
2019-05-26T07:09:52.850Z,99169.39
2019-05-26T07:12:22.276Z,99157.63
2019-05-26T07:14:51.848Z,99160.98
2019-05-26T07:17:21.337Z,99148.88
2019-05-26T07:19:53.387Z,99145.50
2019-05-26T07:22:22.886Z,99136.42
2019-05-26T07:24:52.386Z,99139.43
2019-05-26T07:27:21.968Z,99134.05
2019-05-26T07:29:51.452Z,99130.35
2019-05-26T07:32:21.421Z,99122.28
2019-05-26T07:34:50.957Z,99117.75
2019-05-26T07:37:20.404Z,99125.63
2019-05-26T07:39:49.926Z,99118.91
2019-05-26T07:42:19.431Z,99116.56
2019-05-26T07:44:49.026Z,99116.21
2019-05-26T07:47:18.652Z,99110.83
2019-05-26T07:49:48.142Z,99109.83
2019-05-26T07:52:17.605Z,99102.26
2019-05-26T07:54:47.227Z,99103.11
2019-05-26T07:57:16.740Z,99099.41
2019-05-26T07:59:46.327Z,99101.07
2019-05-26T08:02:15.921Z,99091.49
2019-05-26T08:04:45.513Z,99093.66
2019-05-26T08:07:15.024Z,99087.27
2019-05-26T08:09:44.545Z,99084.95
2019-05-26T08:12:25.807Z,99079.03
2019-05-26T08:14:45.331Z,99077.70
2019-05-26T08:17:14.970Z,99074.50
2019-05-26T08:19:44.520Z,99069.46
2019-05-26T08:22:14.066Z,99063.05
2019-05-26T08:24:43.560Z,99060.36
2019-05-26T08:27:13.094Z,99058.51
2019-05-26T08:29:42.630Z,99056.66
2019-05-26T08:32:14.917Z,99049.94
2019-05-26T08:34:43.519Z,99056.16
2019-05-26T08:37:12.977Z,99053.28
2019-05-26T08:39:42.504Z,99049.78
2019-05-26T08:42:26.293Z,99049.23
2019-05-26T08:44:43.588Z,99046.55
2019-05-26T08:47:13.181Z,99047.39
2019-05-26T08:49:42.675Z,99047.08
2019-05-26T08:52:14.919Z,99044.39
2019-05-26T08:54:46.944Z,99045.39
2019-05-26T08:57:16.420Z,99043.05
2019-05-26T08:59:49.013Z,99035.47
2019-05-26T09:02:18.609Z,99040.86
2019-05-26T09:04:48.114Z,99037.98
2019-05-26T09:07:17.689Z,99036.12
2019-05-26T09:09:47.230Z,99028.90
2019-05-26T09:12:16.782Z,99027.05
2019-05-26T09:14:46.315Z,99025.70
2019-05-26T09:17:15.904Z,99019.63
2019-05-26T09:19:45.839Z,99020.78
2019-05-26T09:22:15.357Z,99023.47
2019-05-26T09:24:44.830Z,99013.55
2019-05-26T09:27:14.367Z,99016.25
2019-05-26T09:29:43.891Z,99012.55
2019-05-26T09:32:13.568Z,99012.55
2019-05-26T09:34:43.068Z,99006.62
2019-05-26T09:37:12.608Z,99006.97
2019-05-26T09:39:42.179Z,99002.44
2019-05-26T09:42:11.818Z,98998.05
2019-05-26T09:44:41.455Z,98999.24
2019-05-26T09:47:10.984Z,99001.40
2019-05-26T09:49:40.478Z,98994.67
2019-05-26T09:52:10.045Z,98992.32
2019-05-26T09:54:39.601Z,98991.82
2019-05-26T09:57:09.122Z,98983.23
2019-05-26T09:59:38.633Z,98986.58
2019-05-26T10:02:08.222Z,98988.27
2019-05-26T10:04:37.956Z,98991.11
2019-05-26T10:07:10.768Z,98993.27
2019-05-26T10:09:38.851Z,98979.65
2019-05-26T10:12:08.311Z,98982.80
2019-05-26T10:14:37.885Z,98992.91
2019-05-26T10:17:07.729Z,98969.83
2019-05-26T10:19:37.230Z,98979.90
2019-05-26T10:22:06.863Z,98971.47
2019-05-26T10:24:36.306Z,98963.53
2019-05-26T10:27:06.006Z,98969.06
2019-05-26T10:29:35.649Z,98966.86
2019-05-26T10:32:05.389Z,98961.27
2019-05-26T10:34:34.884Z,98960.58
2019-05-26T10:37:04.538Z,98944.59
2019-05-26T10:39:34.055Z,98964.41
2019-05-26T10:42:06.608Z,98959.69
2019-05-26T10:44:39.059Z,98964.05
2019-05-26T10:47:08.587Z,98950.07
2019-05-26T10:49:38.418Z,98957.95
2019-05-26T10:52:08.118Z,98967.72
2019-05-26T10:54:37.702Z,98959.64
2019-05-26T10:57:07.252Z,98963.34
2019-05-26T10:59:36.852Z,98960.65
2019-05-26T11:02:06.628Z,98953.91
2019-05-26T11:04:36.199Z,98954.95
2019-05-26T11:07:06.006Z,98965.73
2019-05-26T11:09:35.485Z,98973.81
2019-05-26T11:12:05.239Z,98975.16
2019-05-26T11:14:34.796Z,98979.70
2019-05-26T11:17:04.324Z,98958.66
2019-05-26T11:19:33.838Z,98957.31
2019-05-26T11:22:03.446Z,98957.31
2019-05-26T11:24:33.017Z,98956.66
2019-05-26T11:27:09.817Z,98951.27
2019-05-26T11:29:33.945Z,98953.97
2019-05-26T11:32:03.494Z,98951.61
2019-05-26T11:34:33.154Z,98949.93
2019-05-26T11:37:02.643Z,98950.91
2019-05-26T11:39:32.311Z,98945.33
2019-05-26T11:42:12.770Z,98942.78
2019-05-26T11:44:33.031Z,98956.59
2019-05-26T11:47:02.728Z,99013.30
2019-05-26T11:49:32.253Z,99013.11
2019-05-26T11:52:01.891Z,99021.73
2019-05-26T11:54:34.492Z,99002.70
2019-05-26T11:57:02.689Z,98994.25
2019-05-26T11:59:32.165Z,98971.55
2019-05-26T12:02:01.754Z,98965.52
2019-05-26T12:04:31.264Z,98974.27
2019-05-26T12:07:04.369Z,98985.57
2019-05-26T12:09:33.149Z,98984.39
2019-05-26T12:12:03.528Z,98999.20
2019-05-26T12:14:35.223Z,99007.98
2019-05-26T12:17:04.586Z,99010.53
2019-05-26T12:19:35.267Z,99007.49
2019-05-26T12:22:04.823Z,99001.16
2019-05-26T12:24:54.730Z,98998.28
2019-05-26T12:27:24.218Z,99004.36
2019-05-26T12:29:53.699Z,99001.02
2019-05-26T12:32:23.209Z,98991.25
2019-05-26T12:34:55.783Z,98995.48
2019-05-26T12:37:25.306Z,98995.68
2019-05-26T12:39:54.929Z,98990.80
2019-05-26T12:42:24.504Z,98988.27
2019-05-26T12:44:54.088Z,98979.19
2019-05-26T12:47:23.674Z,98975.65
2019-05-26T12:49:53.297Z,98983.72
2019-05-26T12:52:22.876Z,98983.72
2019-05-26T12:54:52.402Z,98981.38
2019-05-26T12:57:21.860Z,98974.64
2019-05-26T12:59:51.367Z,98975.48
2019-05-26T13:02:20.953Z,98976.13
2019-05-26T13:04:50.440Z,98977.48
2019-05-26T13:07:19.903Z,98981.02
2019-05-26T13:09:49.457Z,98971.59
2019-05-26T13:12:22.340Z,98972.94
2019-05-26T13:15:05.047Z,98973.75
2019-05-26T13:17:22.979Z,98972.24
2019-05-26T13:19:52.491Z,98980.97
2019-05-26T13:22:22.006Z,98981.95
2019-05-26T13:24:51.559Z,98981.41
2019-05-26T13:27:21.097Z,98988.28
2019-05-26T13:29:51.433Z,98986.23
2019-05-26T13:32:21.119Z,98979.65
2019-05-26T13:34:50.701Z,98986.02
2019-05-26T13:37:21.702Z,98989.70
2019-05-26T13:39:51.258Z,98999.81
2019-05-26T13:42:20.737Z,98999.14
2019-05-26T13:44:50.233Z,99002.48
2019-05-26T13:47:26.112Z,99009.87
2019-05-26T13:49:51.121Z,99021.80
2019-05-26T13:52:20.683Z,99035.61
2019-05-26T13:54:50.308Z,99042.34
2019-05-26T13:57:19.883Z,99051.28
2019-05-26T13:59:49.526Z,99049.08
2019-05-26T14:02:21.715Z,99046.89
2019-05-26T14:04:51.268Z,99047.40
2019-05-26T14:07:20.758Z,99047.40
2019-05-26T14:09:50.316Z,99045.55
2019-05-26T14:12:19.849Z,99057.67
2019-05-26T14:14:49.732Z,99064.41
2019-05-26T14:17:20.945Z,99066.59
2019-05-26T14:19:51.958Z,99060.20
2019-05-26T14:22:21.640Z,99050.77
2019-05-26T14:24:54.241Z,99054.62
2019-05-26T14:27:22.546Z,99055.13
2019-05-26T14:29:52.150Z,99048.72
2019-05-26T14:32:21.916Z,99055.80
2019-05-26T14:34:53.227Z,99047.52
2019-05-26T14:37:22.785Z,99062.15
2019-05-26T14:39:52.443Z,99053.25
2019-05-26T14:42:21.978Z,99045.98
2019-05-26T14:44:52.727Z,99055.75
2019-05-26T14:47:22.340Z,99061.98
2019-05-26T14:49:54.393Z,99062.83
2019-05-26T14:52:23.922Z,99070.91
2019-05-26T14:54:53.455Z,99077.11
2019-05-26T14:57:22.932Z,99084.39
2019-05-26T14:59:52.399Z,99094.63
2019-05-26T15:02:21.974Z,99098.36
2019-05-26T15:04:52.972Z,99108.30
2019-05-26T15:07:22.518Z,99113.34
2019-05-26T15:09:52.148Z,99120.78
2019-05-26T15:12:21.746Z,99118.28
2019-05-26T15:14:51.304Z,99126.87
2019-05-26T15:17:20.953Z,99146.42
2019-05-26T15:19:50.503Z,99136.66
2019-05-26T15:22:20.101Z,99140.35
2019-05-26T15:24:49.686Z,99144.09
2019-05-26T15:27:19.217Z,99154.02
2019-05-26T15:29:51.903Z,99143.24
2019-05-26T15:32:22.948Z,99145.59
2019-05-26T15:34:52.512Z,99147.98
2019-05-26T15:37:25.062Z,99155.56
2019-05-26T15:39:54.669Z,99153.87
2019-05-26T15:42:24.448Z,99151.67
2019-05-26T15:44:55.137Z,99152.52
2019-05-26T15:47:24.849Z,99170.03
2019-05-26T15:49:54.327Z,99169.69
2019-05-26T15:52:24.144Z,99175.42
2019-05-26T15:54:53.803Z,99179.66
2019-05-26T15:57:23.371Z,99192.28
2019-05-26T15:59:54.579Z,99196.33
2019-05-26T16:02:24.322Z,99200.87
2019-05-26T16:04:53.981Z,99198.67
2019-05-26T16:07:26.098Z,99195.33
2019-05-26T16:09:55.581Z,99201.37
2019-05-26T16:12:25.630Z,99204.73
2019-05-26T16:14:55.573Z,99206.27
2019-05-26T16:17:25.078Z,99213.19
2019-05-26T16:19:54.648Z,99214.54
2019-05-26T16:22:25.335Z,99216.55
2019-05-26T16:24:54.914Z,99212.19
2019-05-26T16:27:24.423Z,99225.51
2019-05-26T16:29:53.998Z,99228.70
2019-05-26T16:32:23.590Z,99228.55
2019-05-26T16:34:53.122Z,99233.59
2019-05-26T16:37:24.050Z,99238.98
2019-05-26T16:39:56.022Z,99244.55
2019-05-26T16:42:25.503Z,99261.22
2019-05-26T16:44:55.100Z,99274.33
2019-05-26T16:47:24.647Z,99277.22
2019-05-26T16:49:54.374Z,99281.95
2019-05-26T16:52:23.903Z,99290.02
2019-05-26T16:54:53.365Z,99299.60
2019-05-26T16:57:23.345Z,99314.61
2019-05-26T16:59:52.846Z,99311.91
2019-05-26T17:02:22.445Z,99316.95
2019-05-26T17:04:51.956Z,99327.41
2019-05-26T17:07:21.530Z,99333.80
2019-05-26T17:09:51.151Z,99340.03
2019-05-26T17:12:20.837Z,99352.83
2019-05-26T17:14:50.497Z,99352.67
2019-05-26T17:17:20.054Z,99365.79
2019-05-26T17:19:52.640Z,99364.94
2019-05-26T17:22:20.890Z,99362.44
2019-05-26T17:24:50.459Z,99361.23
2019-05-26T17:27:22.208Z,99375.23
2019-05-26T17:29:52.049Z,99375.89
2019-05-26T17:32:21.621Z,99383.65
2019-05-26T17:34:51.115Z,99380.30
2019-05-26T17:37:20.716Z,99380.80
2019-05-26T17:39:50.576Z,99380.62
2019-05-26T17:42:20.551Z,99384.00
2019-05-26T17:44:50.087Z,99396.27
2019-05-26T17:47:29.870Z,99399.95
2019-05-26T17:49:51.012Z,99399.30
2019-05-26T17:52:20.673Z,99404.86
2019-05-26T17:54:50.153Z,99412.27
2019-05-26T17:57:19.621Z,99404.34
2019-05-26T17:59:49.727Z,99407.90
2019-05-26T18:02:19.257Z,99411.23
2019-05-26T18:04:48.838Z,99414.11
2019-05-26T18:07:18.544Z,99423.69
2019-05-26T18:09:48.111Z,99422.70
2019-05-26T18:12:24.507Z,99423.66
2019-05-26T18:14:55.975Z,99419.11
2019-05-26T18:17:25.664Z,99423.67
2019-05-26T18:19:55.266Z,99424.01
2019-05-26T18:22:24.882Z,99430.88
2019-05-26T18:24:58.141Z,99429.72
2019-05-26T18:27:26.633Z,99430.05
2019-05-26T18:29:56.205Z,99429.37
2019-05-26T18:32:25.890Z,99438.63
2019-05-26T18:34:55.436Z,99447.38
2019-05-26T18:37:25.026Z,99445.33
2019-05-26T18:39:54.593Z,99454.42
2019-05-26T18:42:24.127Z,99458.61
2019-05-26T18:44:53.603Z,99468.70
2019-05-26T18:47:23.074Z,99480.13
2019-05-26T18:49:52.946Z,99482.47
2019-05-26T18:52:22.496Z,99476.60
2019-05-26T18:54:52.502Z,99478.09
2019-05-26T18:57:23.154Z,99498.77
2019-05-26T18:59:52.911Z,99497.59
2019-05-26T19:02:22.877Z,99503.97
2019-05-26T19:04:52.572Z,99503.30
2019-05-26T19:07:22.274Z,99510.52
2019-05-26T19:09:51.757Z,99509.84
2019-05-26T19:12:23.524Z,99518.91
2019-05-26T19:14:53.076Z,99528.84
2019-05-26T19:17:22.693Z,99532.70
2019-05-26T19:19:52.480Z,99541.77
2019-05-26T19:22:22.090Z,99547.64
2019-05-26T19:24:51.986Z,99556.73
2019-05-26T19:27:21.680Z,99561.75
2019-05-26T19:29:51.774Z,99567.80
2019-05-26T19:32:22.190Z,99574.84
2019-05-26T19:34:52.098Z,99585.11
2019-05-26T19:37:22.007Z,99594.02
2019-05-26T19:39:51.712Z,99593.36
2019-05-26T19:42:21.282Z,99597.39
2019-05-26T19:44:50.859Z,99595.05
2019-05-26T19:47:20.490Z,99595.73
2019-05-26T19:49:50.038Z,99592.86
2019-05-26T19:52:19.798Z,99599.59
2019-05-26T19:54:51.365Z,99608.86
2019-05-26T19:57:21.438Z,99613.58
2019-05-26T19:59:51.300Z,99612.91
2019-05-26T20:02:21.099Z,99612.76
2019-05-26T20:04:50.906Z,99614.61
2019-05-26T20:07:20.425Z,99621.37
2019-05-26T20:09:50.039Z,99618.86
2019-05-26T20:12:19.655Z,99625.27
2019-05-26T20:14:49.167Z,99616.88
2019-05-26T20:17:18.828Z,99614.86
2019-05-26T20:19:48.283Z,99616.70
2019-05-26T20:22:18.593Z,99632.53
2019-05-26T20:24:48.174Z,99636.25
2019-05-26T20:27:17.682Z,99640.96
2019-05-26T20:29:48.695Z,99644.00
2019-05-26T20:32:18.323Z,99662.03
2019-05-26T20:34:47.935Z,99659.38
2019-05-26T20:37:17.389Z,99667.30
2019-05-26T20:39:47.070Z,99666.48
2019-05-26T20:42:16.587Z,99662.95
2019-05-26T20:44:46.188Z,99655.39
2019-05-26T20:47:15.666Z,99662.98
2019-05-26T20:49:46.063Z,99660.95
2019-05-26T20:52:20.587Z,99663.82
2019-05-26T20:54:50.091Z,99672.61
2019-05-26T20:57:21.491Z,99680.86
2019-05-26T20:59:51.113Z,99685.22
2019-05-26T21:02:20.603Z,99678.34
2019-05-26T21:04:50.126Z,99676.47
2019-05-26T21:07:20.611Z,99685.75
2019-05-26T21:09:50.159Z,99682.88
2019-05-26T21:12:19.791Z,99673.45
2019-05-26T21:14:49.418Z,99676.99
2019-05-26T21:17:21.433Z,99674.30
2019-05-26T21:19:51.041Z,99674.30
2019-05-26T21:22:20.583Z,99684.08
2019-05-26T21:24:50.190Z,99683.23
2019-05-26T21:27:20.105Z,99670.27
2019-05-26T21:29:49.654Z,99667.06
2019-05-26T21:32:19.305Z,99664.38
2019-05-26T21:34:49.770Z,99662.18
2019-05-26T21:37:19.468Z,99660.84
2019-05-26T21:39:49.027Z,99668.41
2019-05-26T21:42:18.502Z,99669.94
2019-05-26T21:44:48.238Z,99662.50
2019-05-26T21:47:17.720Z,99673.59
2019-05-26T21:49:49.802Z,99671.27
2019-05-26T21:52:19.427Z,99677.11
2019-05-26T21:54:49.020Z,99678.81
2019-05-26T21:57:18.563Z,99684.16
2019-05-26T21:59:48.055Z,99689.37
2019-05-26T22:02:17.592Z,99689.55
2019-05-26T22:04:47.048Z,99690.54
2019-05-26T22:07:16.600Z,99696.59
2019-05-26T22:09:46.089Z,99700.63
2019-05-26T22:12:15.902Z,99702.65
2019-05-26T22:14:45.571Z,99702.80
2019-05-26T22:17:15.073Z,99701.63
2019-05-26T22:19:44.628Z,99712.39
2019-05-26T22:22:14.187Z,99714.91
2019-05-26T22:24:43.735Z,99717.59
2019-05-26T22:27:13.176Z,99715.54
2019-05-26T22:29:42.721Z,99711.50
2019-05-26T22:32:12.317Z,99715.69
2019-05-26T22:34:41.854Z,99719.36
2019-05-26T22:37:11.361Z,99723.08
2019-05-26T22:39:40.910Z,99719.53
2019-05-26T22:42:10.590Z,99719.36
2019-05-26T22:44:40.038Z,99722.05
2019-05-26T22:47:09.620Z,99724.91
2019-05-26T22:49:39.110Z,99732.14
2019-05-26T22:52:08.714Z,99726.41
2019-05-26T22:54:38.356Z,99723.36
2019-05-26T22:57:07.880Z,99726.41
2019-05-26T22:59:37.366Z,99723.88
2019-05-26T23:02:07.011Z,99727.39
2019-05-26T23:04:36.569Z,99726.76
2019-05-26T23:07:06.153Z,99726.09
2019-05-26T23:09:35.742Z,99725.42
2019-05-26T23:12:05.201Z,99722.91
2019-05-26T23:14:34.733Z,99723.61
2019-05-26T23:17:04.358Z,99718.94
2019-05-26T23:19:33.887Z,99718.77
2019-05-26T23:22:03.415Z,99717.27
2019-05-26T23:24:33.040Z,99719.80
2019-05-26T23:27:02.564Z,99713.42
2019-05-26T23:29:32.265Z,99711.90
2019-05-26T23:32:01.803Z,99720.33
2019-05-26T23:34:31.298Z,99723.84
2019-05-26T23:37:00.780Z,99719.66
2019-05-26T23:39:30.383Z,99728.58
2019-05-26T23:42:00.053Z,99729.08
2019-05-26T23:44:29.517Z,99729.40
2019-05-26T23:46:59.148Z,99727.55
2019-05-26T23:49:28.602Z,99727.91
2019-05-26T23:51:58.106Z,99733.30
2019-05-26T23:54:27.908Z,99737.66
2019-05-26T23:56:57.337Z,99743.57
2019-05-26T23:59:26.909Z,99748.42
